Time;durP1;ratioP1;P1;durP2;ratioP2;P2;SDS_P1;SDS_P2;PMS_P1;PMS_P2;Temp;Humidity;BMP_temperature;BMP_pressure;BME280_temperature;BME280_humidity;BME280_pressure;Samples;Min_cycle;Max_cycle;Signal;HPM_P1;HPM_P2
2021/08/27 00:00:23;;;;;;;12.30;6.57;;;;;;;;;;5017437;28;20467;-89
2021/08/27 00:02:51;;;;;;;14.50;7.22;;;;;;;;;;5010686;28;20136;-91
2021/08/27 00:05:19;;;;;;;12.63;6.57;;;;;;;;;;5017157;28;20141;-89
2021/08/27 00:07:48;;;;;;;15.23;7.00;;;;;;;;;;4977279;28;20041;-89
2021/08/27 00:10:15;;;;;;;12.80;4.75;;;;;;;;;;5007868;28;20033;-88
2021/08/27 00:12:43;;;;;;;14.48;4.40;;;;;;;;;;5003527;28;20048;-89
2021/08/27 00:15:10;;;;;;;12.07;4.70;;;;;;;;;;5006796;28;20045;-88
2021/08/27 00:17:39;;;;;;;11.02;4.75;;;;;;;;;;4989715;28;20048;-89
2021/08/27 00:20:08;;;;;;;11.18;4.07;;;;;;;;;;4994078;28;20022;-90
2021/08/27 00:22:36;;;;;;;14.15;4.45;;;;;;;;;;5004569;28;20204;-91
2021/08/27 00:25:05;;;;;;;12.73;4.55;;;;;;;;;;5005907;28;20071;-90
2021/08/27 00:27:32;;;;;;;14.40;4.05;;;;;;;;;;5006006;28;20061;-90
2021/08/27 00:30:00;;;;;;;11.18;4.47;;;;;;;;;;4992482;28;20130;-91
2021/08/27 00:32:30;;;;;;;12.65;4.18;;;;;;;;;;4990874;28;20034;-91
2021/08/27 00:34:57;;;;;;;11.02;4.07;;;;;;;;;;4970036;28;20025;-90
2021/08/27 00:37:25;;;;;;;12.30;4.32;;;;;;;;;;4988766;28;20702;-89
2021/08/27 00:39:53;;;;;;;10.65;4.20;;;;;;;;;;4987361;28;20026;-90
2021/08/27 00:42:22;;;;;;;10.65;4.57;;;;;;;;;;4991426;28;20456;-89
2021/08/27 00:44:53;;;;;;;11.38;5.40;;;;;;;;;;5005026;28;20023;-89
2021/08/27 00:47:21;;;;;;;13.02;4.15;;;;;;;;;;5000986;28;20054;-90
2021/08/27 00:49:51;;;;;;;14.50;5.30;;;;;;;;;;4994743;28;20034;-89
2021/08/27 00:52:19;;;;;;;12.13;4.40;;;;;;;;;;4992158;28;20050;-88
2021/08/27 00:54:51;;;;;;;11.15;4.28;;;;;;;;;;5012626;28;20104;-89
2021/08/27 00:57:21;;;;;;;10.80;3.97;;;;;;;;;;5019094;28;20017;-88
2021/08/27 00:59:50;;;;;;;12.60;4.32;;;;;;;;;;5008136;28;20034;-88
2021/08/27 01:02:20;;;;;;;10.73;4.63;;;;;;;;;;5008958;28;20026;-89
2021/08/27 01:04:50;;;;;;;11.27;4.10;;;;;;;;;;5000550;28;20048;-88
2021/08/27 01:07:28;;;;;;;10.68;4.05;;;;;;;;;;5002820;28;20065;-88
2021/08/27 01:10:05;;;;;;;9.90;4.03;;;;;;;;;;5003204;28;20037;-87
2021/08/27 01:12:32;;;;;;;;;;;;;;;;;;5001938;28;20040;-87
2021/08/27 01:15:05;;;;;;;10.73;3.83;;;;;;;;;;5016887;28;19980;-87
2021/08/27 01:17:43;;;;;;;14.68;4.57;;;;;;;;;;5025326;28;20124;-87
2021/08/27 01:20:29;;;;;;;12.52;4.72;;;;;;;;;;5019185;28;20095;-88
2021/08/27 01:23:05;;;;;;;10.32;4.38;;;;;;;;;;5024874;28;20337;-88
2021/08/27 01:25:37;;;;;;;9.27;4.17;;;;;;;;;;5027452;28;20033;-88
2021/08/27 01:28:10;;;;;;;10.35;4.35;;;;;;;;;;5027774;28;20026;-89
2021/08/27 01:30:58;;;;;;;10.38;4.35;;;;;;;;;;5025396;28;20032;-87
2021/08/27 01:33:30;;;;;;;10.90;5.22;;;;;;;;;;5025346;28;20025;-88
2021/08/27 01:35:59;;;;;;;10.18;4.82;;;;;;;;;;5017793;28;20378;-86
2021/08/27 01:38:40;;;;;;;11.48;4.72;;;;;;;;;;5019529;28;20134;-86
2021/08/27 01:41:09;;;;;;;11.65;4.32;;;;;;;;;;5024885;28;20024;-86
2021/08/27 01:43:41;;;;;;;12.23;4.63;;;;;;;;;;5027867;28;20037;-85
2021/08/27 01:46:13;;;;;;;10.60;4.18;;;;;;;;;;5034565;28;20013;-91
2021/08/27 01:48:52;;;;;;;11.35;4.43;;;;;;;;;;5026471;28;20037;-83
2021/08/27 01:51:21;;;;;;;11.40;3.92;;;;;;;;;;5041999;28;20748;-85
2021/08/27 01:53:49;;;;;;;10.38;3.80;;;;;;;;;;5034083;28;20040;-84
2021/08/27 01:56:19;;;;;;;9.15;4.20;;;;;;;;;;5037275;28;20071;-85
2021/08/27 01:58:47;;;;;;;11.35;4.97;;;;;;;;;;5029000;28;20077;-85
2021/08/27 02:01:14;;;;;;;13.77;4.75;;;;;;;;;;5049302;28;20087;-85
2021/08/27 02:03:41;;;;;;;11.43;4.75;;;;;;;;;;5023869;28;20021;-85
2021/08/27 02:06:13;;;;;;;10.30;4.60;;;;;;;;;;5025820;28;20047;-85
2021/08/27 02:08:42;;;;;;;11.70;3.80;;;;;;;;;;5023456;28;20112;-85
2021/08/27 02:11:30;;;;;;;11.52;4.22;;;;;;;;;;5021935;28;20419;-79
2021/08/27 02:13:57;;;;;;;12.45;4.68;;;;;;;;;;4991539;28;20049;-79
2021/08/27 02:16:24;;;;;;;9.88;3.83;;;;;;;;;;4991136;28;20170;-80
2021/08/27 02:18:53;;;;;;;11.45;4.20;;;;;;;;;;4993277;28;20027;-79
2021/08/27 02:21:26;;;;;;;11.88;4.50;;;;;;;;;;4993870;28;23388;-82
2021/08/27 02:23:54;;;;;;;12.80;3.78;;;;;;;;;;4979627;28;20045;-80
2021/08/27 02:26:24;;;;;;;11.15;3.95;;;;;;;;;;4993881;28;20036;-79
2021/08/27 02:28:58;;;;;;;11.43;5.03;;;;;;;;;;4992845;28;20034;-81
2021/08/27 02:31:26;;;;;;;13.18;5.05;;;;;;;;;;4997412;28;20149;-80
2021/08/27 02:33:57;;;;;;;8.52;3.42;;;;;;;;;;4973105;28;23729;-79
2021/08/27 02:36:25;;;;;;;11.00;3.92;;;;;;;;;;4993905;28;20111;-81
2021/08/27 02:38:54;;;;;;;15.88;6.00;;;;;;;;;;4977912;28;20048;-80
2021/08/27 02:41:22;;;;;;;12.93;5.80;;;;;;;;;;4980848;28;20049;-81
2021/08/27 02:43:49;;;;;;;10.80;5.25;;;;;;;;;;4992722;28;20199;-80
2021/08/27 02:46:18;;;;;;;9.00;3.58;;;;;;;;;;4979371;28;20124;-79
2021/08/27 02:48:47;;;;;;;11.38;4.35;;;;;;;;;;4989639;28;20055;-80
2021/08/27 02:51:15;;;;;;;11.18;5.00;;;;;;;;;;4995992;28;20029;-80
2021/08/27 02:53:48;;;;;;;9.52;3.95;;;;;;;;;;4982976;28;20040;-81
2021/08/27 02:56:30;;;;;;;11.13;4.55;;;;;;;;;;4991355;28;20588;-80
2021/08/27 02:58:59;;;;;;;11.85;4.57;;;;;;;;;;4997076;28;20552;-81
2021/08/27 03:01:40;;;;;;;11.48;5.30;;;;;;;;;;4998675;28;20386;-80
2021/08/27 03:04:16;;;;;;;9.63;4.63;;;;;;;;;;4986185;28;20046;-81
2021/08/27 03:06:51;;;;;;;9.45;4.30;;;;;;;;;;4977900;28;20034;-80
2021/08/27 03:09:21;;;;;;;11.32;5.10;;;;;;;;;;4992044;28;20030;-80
2021/08/27 03:11:52;;;;;;;14.60;6.75;;;;;;;;;;4976669;28;20122;-81
2021/08/27 03:14:41;;;;;;;16.85;8.32;;;;;;;;;;4979809;28;20042;-81
2021/08/27 03:17:19;;;;;;;13.35;4.75;;;;;;;;;;5018068;28;20053;-80
2021/08/27 03:20:07;;;;;;;10.60;4.13;;;;;;;;;;5016702;28;20082;-80
2021/08/27 03:22:38;;;;;;;14.68;6.07;;;;;;;;;;5013300;28;20083;-81
2021/08/27 03:25:08;;;;;;;12.38;4.07;;;;;;;;;;5015159;28;20106;-80
2021/08/27 03:27:39;;;;;;;14.40;6.65;;;;;;;;;;5009422;28;20059;-79
2021/08/27 03:30:09;;;;;;;9.52;3.60;;;;;;;;;;5020479;28;20123;-79
2021/08/27 03:32:35;;;;;;;12.27;5.70;;;;;;;;;;5015227;28;20045;-80
2021/08/27 03:35:04;;;;;;;11.73;5.13;;;;;;;;;;5017777;28;20048;-80
2021/08/27 03:37:35;;;;;;;10.32;4.10;;;;;;;;;;5020205;28;20036;-79
2021/08/27 03:40:02;;;;;;;11.70;5.28;;;;;;;;;;5014525;28;20021;-81
2021/08/27 03:42:31;;;;;;;10.98;3.92;;;;;;;;;;5018766;28;20500;-80
2021/08/27 03:45:00;;;;;;;9.73;4.20;;;;;;;;;;5012018;28;20517;-80
2021/08/27 03:47:28;;;;;;;9.52;3.72;;;;;;;;;;5020908;28;20988;-81
2021/08/27 03:49:57;;;;;;;10.88;3.85;;;;;;;;;;5013092;28;20676;-81
2021/08/27 03:52:25;;;;;;;13.63;6.78;;;;;;;;;;5020861;28;20035;-83
2021/08/27 03:54:53;;;;;;;12.88;5.72;;;;;;;;;;5011493;28;20033;-81
2021/08/27 03:57:20;;;;;;;13.85;7.63;;;;;;;;;;5020694;28;20015;-81
2021/08/27 03:59:48;;;;;;;9.90;4.20;;;;;;;;;;5012232;28;20028;-80
2021/08/27 04:02:18;;;;;;;11.23;4.45;;;;;;;;;;5026449;28;20045;-80
2021/08/27 04:04:45;;;;;;;9.38;4.10;;;;;;;;;;5030721;28;20037;-79
2021/08/27 04:07:11;;;;;;;11.18;4.07;;;;;;;;;;5016952;28;20033;-79
2021/08/27 04:09:38;;;;;;;13.75;5.10;;;;;;;;;;5014772;28;20048;-79
2021/08/27 04:12:06;;;;;;;10.95;4.70;;;;;;;;;;5018220;28;20033;-80
2021/08/27 04:14:34;;;;;;;12.40;5.80;;;;;;;;;;5015788;28;20037;-82
2021/08/27 04:17:04;;;;;;;13.57;5.43;;;;;;;;;;5013104;28;20380;-80
2021/08/27 04:19:33;;;;;;;15.25;6.88;;;;;;;;;;5017671;28;20117;-83
2021/08/27 04:22:01;;;;;;;11.25;4.70;;;;;;;;;;5015330;28;20029;-79
2021/08/27 04:24:28;;;;;;;12.85;5.90;;;;;;;;;;5018217;28;20563;-80
2021/08/27 04:26:56;;;;;;;11.23;3.83;;;;;;;;;;5014062;28;21546;-78
2021/08/27 04:29:24;;;;;;;12.05;4.50;;;;;;;;;;5016904;28;20028;-81
2021/08/27 04:31:51;;;;;;;12.75;4.40;;;;;;;;;;5013018;28;20119;-81
2021/08/27 04:34:18;;;;;;;12.63;5.75;;;;;;;;;;5020426;28;20049;-80
2021/08/27 04:36:47;;;;;;;14.52;4.57;;;;;;;;;;5011241;28;20036;-79
2021/08/27 04:39:13;;;;;;;11.50;4.50;;;;;;;;;;5016351;28;20360;-79
2021/08/27 04:41:40;;;;;;;12.07;4.45;;;;;;;;;;5008778;28;20033;-80
2021/08/27 04:44:07;;;;;;;13.10;4.60;;;;;;;;;;5019002;28;20025;-81
2021/08/27 04:46:34;;;;;;;10.20;4.05;;;;;;;;;;5013099;28;20040;-78
2021/08/27 04:49:02;;;;;;;13.52;4.60;;;;;;;;;;5021591;28;20468;-81
2021/08/27 04:51:34;;;;;;;11.30;5.13;;;;;;;;;;5016408;28;20037;-86
2021/08/27 04:54:01;;;;;;;13.35;4.30;;;;;;;;;;5018298;28;20707;-85
2021/08/27 04:56:29;;;;;;;11.57;5.80;;;;;;;;;;5021771;28;20053;-85
2021/08/27 04:58:56;;;;;;;11.43;3.97;;;;;;;;;;5013978;28;20170;-85
2021/08/27 05:01:24;;;;;;;9.75;3.70;;;;;;;;;;5020006;28;20120;-85
2021/08/27 05:03:51;;;;;;;14.00;5.90;;;;;;;;;;5016405;28;20512;-86
2021/08/27 05:06:18;;;;;;;9.57;3.78;;;;;;;;;;5031537;28;20044;-86
2021/08/27 05:08:47;;;;;;;12.73;4.20;;;;;;;;;;5029884;28;20044;-85
2021/08/27 05:11:15;;;;;;;10.90;3.90;;;;;;;;;;5019504;28;20530;-85
2021/08/27 05:13:42;;;;;;;15.15;6.25;;;;;;;;;;5013532;28;20039;-87
2021/08/27 05:16:09;;;;;;;10.63;3.83;;;;;;;;;;5021707;28;20050;-85
2021/08/27 05:18:38;;;;;;;10.35;3.70;;;;;;;;;;5021373;28;20068;-84
2021/08/27 05:21:07;;;;;;;8.85;3.53;;;;;;;;;;5026119;28;20040;-85
2021/08/27 05:23:35;;;;;;;12.35;4.85;;;;;;;;;;5051799;28;20009;-85
2021/08/27 05:26:01;;;;;;;11.32;4.30;;;;;;;;;;5052380;28;20024;-85
2021/08/27 05:28:28;;;;;;;11.27;4.20;;;;;;;;;;5043669;28;20041;-85
2021/08/27 05:30:56;;;;;;;13.57;4.20;;;;;;;;;;5022858;28;20039;-86
2021/08/27 05:33:23;;;;;;;12.40;4.88;;;;;;;;;;5029917;28;20050;-85
2021/08/27 05:35:49;;;;;;;12.57;4.20;;;;;;;;;;5022968;28;20020;-85
2021/08/27 05:38:37;;;;;;;10.30;3.60;;;;;;;;;;5030737;28;20033;-84
2021/08/27 05:41:06;;;;;;;14.65;5.75;;;;;;;;;;4966607;28;20057;-86
2021/08/27 05:43:34;;;;;;;12.85;4.90;;;;;;;;;;4963567;28;20074;-85
2021/08/27 05:46:01;;;;;;;11.85;4.30;;;;;;;;;;4976784;28;20038;-85
2021/08/27 05:48:28;;;;;;;10.05;3.55;;;;;;;;;;4952394;28;20652;-87
2021/08/27 05:50:54;;;;;;;10.38;3.55;;;;;;;;;;4966093;28;20033;-87
2021/08/27 05:53:23;;;;;;;15.75;7.47;;;;;;;;;;4950645;28;20218;-86
2021/08/27 05:55:51;;;;;;;15.80;6.30;;;;;;;;;;4956823;28;20057;-81
2021/08/27 05:58:20;;;;;;;11.45;4.85;;;;;;;;;;4936692;28;20108;-86
2021/08/27 06:00:50;;;;;;;11.73;4.63;;;;;;;;;;4961644;28;20024;-87
2021/08/27 06:03:20;;;;;;;13.13;4.50;;;;;;;;;;4967268;28;20031;-86
2021/08/27 06:05:47;;;;;;;13.15;3.70;;;;;;;;;;4942254;28;20490;-86
2021/08/27 06:08:16;;;;;;;9.57;3.88;;;;;;;;;;4951561;28;20035;-86
2021/08/27 06:10:44;;;;;;;11.52;3.72;;;;;;;;;;4957508;28;20684;-86
2021/08/27 06:13:11;;;;;;;16.10;4.18;;;;;;;;;;4950040;28;20035;-86
2021/08/27 06:15:42;;;;;;;11.73;5.53;;;;;;;;;;4952554;28;20406;-82
2021/08/27 06:18:11;;;;;;;11.45;4.25;;;;;;;;;;4955349;28;20086;-86
2021/08/27 06:20:39;;;;;;;12.18;4.53;;;;;;;;;;4937013;28;20145;-85
2021/08/27 06:23:06;;;;;;;14.38;3.47;;;;;;;;;;4954656;28;20040;-84
2021/08/27 06:25:35;;;;;;;14.13;5.55;;;;;;;;;;4957222;28;20034;-86
2021/08/27 06:28:04;;;;;;;13.00;3.67;;;;;;;;;;4961454;28;20081;-84
2021/08/27 06:30:34;;;;;;;14.98;5.13;;;;;;;;;;4966875;28;20037;-86
2021/08/27 06:33:01;;;;;;;11.68;2.95;;;;;;;;;;5026393;28;20049;-86
2021/08/27 06:35:30;;;;;;;13.52;3.33;;;;;;;;;;5020413;28;20540;-85
2021/08/27 06:40:47;;;;;;;12.40;3.30;;;;;;;;;;5018776;28;20096;-88
2021/08/27 06:43:14;;;;;;;11.05;3.17;;;;;;;;;;5022884;28;20029;-83
2021/08/27 06:45:42;;;;;;;13.40;3.50;;;;;;;;;;5018712;28;20082;-84
2021/08/27 06:48:09;;;;;;;13.90;3.40;;;;;;;;;;5019716;28;20037;-85
2021/08/27 06:50:38;;;;;;;11.50;3.35;;;;;;;;;;5021957;28;20057;-86
2021/08/27 06:53:06;;;;;;;10.93;3.40;;;;;;;;;;5024412;28;20110;-86
2021/08/27 06:55:34;;;;;;;10.15;3.05;;;;;;;;;;5024863;28;20098;-84
2021/08/27 06:58:02;;;;;;;9.20;3.22;;;;;;;;;;5022744;28;20024;-87
2021/08/27 07:00:29;;;;;;;9.77;3.22;;;;;;;;;;5018805;28;20033;-86
2021/08/27 07:02:57;;;;;;;11.40;3.60;;;;;;;;;;5019409;28;20145;-86
2021/08/27 07:05:25;;;;;;;11.88;3.42;;;;;;;;;;5022854;28;20033;-87
2021/08/27 07:07:53;;;;;;;12.65;3.70;;;;;;;;;;5016783;28;20845;-85
2021/08/27 07:10:23;;;;;;;12.57;3.30;;;;;;;;;;5020913;28;20502;-85
2021/08/27 07:12:49;;;;;;;14.27;3.58;;;;;;;;;;5017053;28;20362;-86
2021/08/27 07:15:19;;;;;;;11.45;3.30;;;;;;;;;;5002905;28;20040;-85
2021/08/27 07:17:48;;;;;;;10.27;3.35;;;;;;;;;;5018655;28;20068;-86
2021/08/27 07:20:14;;;;;;;10.90;3.65;;;;;;;;;;5009747;28;20029;-85
2021/08/27 07:22:43;;;;;;;10.45;2.95;;;;;;;;;;5018021;28;20063;-84
2021/08/27 07:25:09;;;;;;;13.05;3.90;;;;;;;;;;5024574;28;20039;-85
2021/08/27 07:27:36;;;;;;;10.55;3.00;;;;;;;;;;5016771;28;20041;-83
2021/08/27 07:30:05;;;;;;;9.50;3.20;;;;;;;;;;5022698;28;20033;-86
2021/08/27 07:32:36;;;;;;;9.50;3.28;;;;;;;;;;5019857;28;20400;-85
2021/08/27 07:35:03;;;;;;;10.10;3.10;;;;;;;;;;5034730;28;20017;-86
2021/08/27 07:37:30;;;;;;;11.23;3.30;;;;;;;;;;5006919;28;20052;-85
2021/08/27 07:39:57;;;;;;;9.77;3.03;;;;;;;;;;5034066;28;20013;-85
2021/08/27 07:42:25;;;;;;;12.80;3.20;;;;;;;;;;5045919;28;20056;-87
2021/08/27 07:44:52;;;;;;;14.38;3.53;;;;;;;;;;5043885;28;23780;-87
2021/08/27 07:47:18;;;;;;;10.75;3.00;;;;;;;;;;5025099;28;20064;-86
2021/08/27 07:49:46;;;;;;;11.00;3.42;;;;;;;;;;5023449;28;20401;-87
2021/08/27 07:52:14;;;;;;;9.10;3.00;;;;;;;;;;5023178;28;20033;-86
2021/08/27 07:54:40;;;;;;;9.93;2.80;;;;;;;;;;5016544;28;20060;-86
2021/08/27 07:57:09;;;;;;;10.75;3.35;;;;;;;;;;5023855;28;20393;-86
2021/08/27 07:59:35;;;;;;;12.77;3.42;;;;;;;;;;5023457;28;20023;-86
2021/08/27 08:02:03;;;;;;;10.80;3.47;;;;;;;;;;5029908;28;20100;-86
2021/08/27 08:04:31;;;;;;;12.75;3.35;;;;;;;;;;5033238;28;20052;-86
2021/08/27 08:06:57;;;;;;;11.73;3.70;;;;;;;;;;5028063;28;20057;-85
2021/08/27 08:09:24;;;;;;;10.07;3.53;;;;;;;;;;5025932;28;20148;-86
2021/08/27 08:11:53;;;;;;;12.63;3.28;;;;;;;;;;5025322;28;20023;-86
2021/08/27 08:14:20;;;;;;;12.32;3.45;;;;;;;;;;5007001;28;20572;-87
2021/08/27 08:16:47;;;;;;;13.48;3.42;;;;;;;;;;5001268;28;20029;-87
2021/08/27 08:19:14;;;;;;;11.80;3.25;;;;;;;;;;4970585;28;20551;-87
2021/08/27 08:21:42;;;;;;;8.93;3.22;;;;;;;;;;4982030;28;20038;-89
2021/08/27 08:24:11;;;;;;;11.85;3.35;;;;;;;;;;4975503;28;20034;-86
2021/08/27 08:26:40;;;;;;;12.43;3.38;;;;;;;;;;4991676;28;20394;-87
2021/08/27 08:29:09;;;;;;;10.65;3.03;;;;;;;;;;4998146;28;20042;-88
2021/08/27 08:31:46;;;;;;;10.32;2.97;;;;;;;;;;4994206;28;20114;-86
2021/08/27 08:34:17;;;;;;;12.55;3.70;;;;;;;;;;5003453;28;20076;-87
2021/08/27 08:36:44;;;;;;;10.48;3.50;;;;;;;;;;4984596;28;20022;-85
2021/08/27 08:39:12;;;;;;;9.93;3.42;;;;;;;;;;4981937;28;20049;-84
2021/08/27 08:41:40;;;;;;;9.35;3.10;;;;;;;;;;4963832;28;20185;-86
2021/08/27 08:44:06;;;;;;;13.00;3.47;;;;;;;;;;4986988;28;20026;-87
2021/08/27 08:46:33;;;;;;;12.40;3.58;;;;;;;;;;4980855;28;20042;-87
2021/08/27 08:49:03;;;;;;;9.85;3.08;;;;;;;;;;4987864;28;20048;-87
2021/08/27 08:51:30;;;;;;;10.00;3.30;;;;;;;;;;4982872;28;20206;-84
2021/08/27 08:54:02;;;;;;;8.93;2.90;;;;;;;;;;4987844;28;20252;-86
2021/08/27 08:56:29;;;;;;;13.98;3.03;;;;;;;;;;5004735;28;20539;-86
2021/08/27 08:59:02;;;;;;;10.75;3.38;;;;;;;;;;4994064;28;20156;-87
2021/08/27 09:01:29;;;;;;;12.27;3.40;;;;;;;;;;4994778;28;20040;-86
2021/08/27 09:03:57;;;;;;;9.07;3.50;;;;;;;;;;4987658;28;20045;-87
2021/08/27 09:06:25;;;;;;;8.73;3.03;;;;;;;;;;5007497;28;20042;-88
2021/08/27 09:08:52;;;;;;;9.00;2.80;;;;;;;;;;4989840;28;20401;-87
2021/08/27 09:11:22;;;;;;;10.55;3.13;;;;;;;;;;5010123;28;20072;-84
2021/08/27 09:13:52;;;;;;;11.90;3.20;;;;;;;;;;5003876;28;20124;-87
2021/08/27 09:16:23;;;;;;;14.82;3.30;;;;;;;;;;5005607;28;20036;-84
2021/08/27 09:18:52;;;;;;;9.88;3.35;;;;;;;;;;4998593;28;20038;-87
2021/08/27 09:21:32;;;;;;;10.82;3.05;;;;;;;;;;5024584;28;20029;-85
2021/08/27 09:24:18;;;;;;;14.20;4.15;;;;;;;;;;5020377;28;20045;-87
2021/08/27 09:26:50;;;;;;;11.00;3.42;;;;;;;;;;5009716;28;20037;-86
2021/08/27 09:29:38;;;;;;;10.88;3.28;;;;;;;;;;5011554;28;20041;-89
2021/08/27 09:32:34;;;;;;;9.93;3.22;;;;;;;;;;5008871;28;20752;-86
2021/08/27 09:35:18;;;;;;;9.95;2.70;;;;;;;;;;4992455;28;20659;-87
2021/08/27 09:37:56;;;;;;;11.20;3.00;;;;;;;;;;5005805;28;20026;-86
2021/08/27 09:40:28;;;;;;;8.38;2.90;;;;;;;;;;5008198;28;20037;-86
2021/08/27 09:42:56;;;;;;;11.73;2.83;;;;;;;;;;4988649;28;21263;-87
2021/08/27 09:45:35;;;;;;;11.13;3.20;;;;;;;;;;5013526;28;20033;-87
2021/08/27 09:48:12;;;;;;;9.02;2.70;;;;;;;;;;5003391;28;20037;-88
2021/08/27 09:50:39;;;;;;;12.75;3.00;;;;;;;;;;5018876;28;20143;-86
2021/08/27 09:53:07;;;;;;;10.15;2.88;;;;;;;;;;5007662;28;20151;-86
2021/08/27 09:55:39;;;;;;;10.05;3.15;;;;;;;;;;5017578;28;20662;-86
2021/08/27 09:58:12;;;;;;;9.20;2.85;;;;;;;;;;5033057;28;20060;-87
2021/08/27 10:00:40;;;;;;;11.13;3.10;;;;;;;;;;5022704;28;20041;-87
2021/08/27 10:03:19;;;;;;;10.50;2.97;;;;;;;;;;5009155;28;20030;-88
2021/08/27 10:05:48;;;;;;;9.13;2.60;;;;;;;;;;5007661;28;20552;-90
2021/08/27 10:08:37;;;;;;;9.18;2.75;;;;;;;;;;5009895;28;20723;-88
2021/08/27 10:11:23;;;;;;;9.13;2.55;;;;;;;;;;5010175;28;20029;-88
2021/08/27 10:13:52;;;;;;;10.23;3.08;;;;;;;;;;5002090;28;20041;-88
2021/08/27 10:16:20;;;;;;;16.33;3.35;;;;;;;;;;5026045;28;22158;-88
2021/08/27 10:18:47;;;;;;;10.60;3.05;;;;;;;;;;5026718;28;20037;-89
2021/08/27 10:21:17;;;;;;;13.52;3.20;;;;;;;;;;5045314;28;20025;-91
2021/08/27 10:23:48;;;;;;;10.52;3.00;;;;;;;;;;5031496;28;20029;-88
2021/08/27 10:26:22;;;;;;;9.30;3.45;;;;;;;;;;5031646;28;20048;-91
2021/08/27 10:28:50;;;;;;;12.88;3.10;;;;;;;;;;5028162;28;20065;-91
2021/08/27 10:31:18;;;;;;;9.73;2.78;;;;;;;;;;5031661;28;20047;-90
2021/08/27 10:33:47;;;;;;;8.30;2.70;;;;;;;;;;5034598;28;20059;-89
2021/08/27 10:36:28;;;;;;;10.68;3.28;;;;;;;;;;5031729;28;20039;-90
2021/08/27 10:39:02;;;;;;;11.65;3.00;;;;;;;;;;5029128;28;20747;-90
2021/08/27 10:41:40;;;;;;;10.00;2.70;;;;;;;;;;5024237;28;20044;-85
2021/08/27 10:44:17;;;;;;;11.85;2.95;;;;;;;;;;5027086;28;20029;-88
2021/08/27 10:46:53;;;;;;;10.23;2.70;;;;;;;;;;5023185;28;20069;-88
2021/08/27 10:49:24;;;;;;;;;;;;;;;;;;5027335;28;20033;-89
2021/08/27 10:51:54;;;;;;;12.40;2.92;;;;;;;;;;5026172;28;20463;-90
2021/08/27 10:54:23;;;;;;;11.55;2.92;;;;;;;;;;5025081;28;20029;-90
2021/08/27 10:56:51;;;;;;;10.77;2.65;;;;;;;;;;5030147;28;20026;-91
2021/08/27 10:59:25;;;;;;;9.00;2.97;;;;;;;;;;5026258;28;20025;-89
2021/08/27 11:02:13;;;;;;;9.43;2.50;;;;;;;;;;5029986;28;20083;-88
2021/08/27 11:04:46;;;;;;;9.10;2.67;;;;;;;;;;5023757;28;20041;-89
2021/08/27 11:07:15;;;;;;;10.25;3.30;;;;;;;;;;5010629;28;20039;-92
2021/08/27 11:10:03;;;;;;;10.70;2.75;;;;;;;;;;5015068;28;20131;-91
2021/08/27 11:12:31;;;;;;;11.63;3.10;;;;;;;;;;5021840;28;20053;-88
2021/08/27 11:15:20;;;;;;;11.88;3.22;;;;;;;;;;5004768;28;20037;-87
2021/08/27 11:18:06;;;;;;;12.10;2.95;;;;;;;;;;5010245;28;20040;-88
2021/08/27 11:20:39;;;;;;;11.75;2.97;;;;;;;;;;4964544;28;20593;-85
2021/08/27 11:23:07;;;;;;;11.18;3.28;;;;;;;;;;4983504;28;20042;-86
2021/08/27 11:25:37;;;;;;;8.05;2.47;;;;;;;;;;4964519;28;20480;-86
2021/08/27 11:28:11;;;;;;;11.60;2.70;;;;;;;;;;4983142;28;20129;-84
2021/08/27 11:30:44;;;;;;;8.20;2.53;;;;;;;;;;4963058;28;20034;-85
2021/08/27 11:33:30;;;;;;;10.68;2.83;;;;;;;;;;4984010;28;20132;-87
2021/08/27 11:36:03;;;;;;;9.40;2.65;;;;;;;;;;4982777;28;20057;-85
2021/08/27 11:38:43;;;;;;;10.70;2.58;;;;;;;;;;4985049;28;20328;-85
2021/08/27 11:41:12;;;;;;;9.98;2.97;;;;;;;;;;4984059;28;20038;-84
2021/08/27 11:43:44;;;;;;;8.50;2.45;;;;;;;;;;4966910;28;20039;-86
2021/08/27 11:46:15;;;;;;;10.38;2.67;;;;;;;;;;4993379;28;20064;-85
2021/08/27 11:48:43;;;;;;;11.10;2.65;;;;;;;;;;4988061;28;20073;-86
2021/08/27 11:51:16;;;;;;;12.23;3.42;;;;;;;;;;4997707;28;20030;-94
2021/08/27 11:53:49;;;;;;;9.57;2.78;;;;;;;;;;4996205;28;20180;-91
2021/08/27 11:56:23;;;;;;;14.20;3.00;;;;;;;;;;5006183;28;20033;-94
2021/08/27 11:58:53;;;;;;;10.75;2.65;;;;;;;;;;5012798;28;20087;-90
2021/08/27 12:01:31;;;;;;;10.52;2.92;;;;;;;;;;4974050;28;20117;-88
2021/08/27 12:04:39;;;;;;;9.25;2.72;;;;;;;;;;4957909;28;20199;-90
2021/08/27 12:07:14;;;;;;;11.38;2.78;;;;;;;;;;4976291;28;20034;-83
2021/08/27 12:10:03;;;;;;;11.68;3.05;;;;;;;;;;4988958;28;20086;-93
2021/08/27 12:12:32;;;;;;;11.40;2.50;;;;;;;;;;4942134;28;20038;-89
2021/08/27 12:15:03;;;;;;;10.00;2.60;;;;;;;;;;4970271;28;20081;-88
2021/08/27 12:17:34;;;;;;;9.93;2.75;;;;;;;;;;4940756;28;20041;-87
2021/08/27 12:20:07;;;;;;;11.48;3.05;;;;;;;;;;4973555;28;20065;-89
2021/08/27 12:22:46;;;;;;;13.35;2.75;;;;;;;;;;4970545;28;20034;-92
2021/08/27 12:25:39;;;;;;;11.85;2.80;;;;;;;;;;4957955;28;20038;-88
2021/08/27 12:28:15;;;;;;;12.23;2.60;;;;;;;;;;4967413;28;20619;-88
2021/08/27 12:30:56;;;;;;;10.00;2.60;;;;;;;;;;4957050;28;21907;-82
2021/08/27 12:33:26;;;;;;;11.10;2.97;;;;;;;;;;4963642;28;20057;-86
2021/08/27 12:35:54;;;;;;;9.38;2.50;;;;;;;;;;4958815;28;20089;-83
2021/08/27 12:38:23;;;;;;;10.75;2.70;;;;;;;;;;4961973;28;20038;-89
2021/08/27 12:40:52;;;;;;;10.57;2.65;;;;;;;;;;4972288;28;20049;-87
2021/08/27 12:43:24;;;;;;;8.88;2.70;;;;;;;;;;4959204;28;20161;-87
2021/08/27 12:45:53;;;;;;;12.73;2.60;;;;;;;;;;4953697;28;20035;-87
2021/08/27 12:48:35;;;;;;;10.52;2.70;;;;;;;;;;4982545;28;20030;-85
2021/08/27 12:51:12;;;;;;;10.10;2.83;;;;;;;;;;4968225;28;20081;-90
2021/08/27 12:53:44;;;;;;;9.48;2.60;;;;;;;;;;4998178;28;20061;-92
2021/08/27 12:56:15;;;;;;;9.07;2.70;;;;;;;;;;5008439;28;20049;-88
2021/08/27 12:58:45;;;;;;;9.98;2.70;;;;;;;;;;5041631;28;20025;-85
2021/08/27 13:01:13;;;;;;;10.90;2.88;;;;;;;;;;5052099;28;20411;-87
2021/08/27 13:03:41;;;;;;;11.75;2.70;;;;;;;;;;5037913;28;20033;-88
2021/08/27 13:06:08;;;;;;;15.85;2.70;;;;;;;;;;5025726;28;20064;-85
2021/08/27 13:08:38;;;;;;;9.50;2.50;;;;;;;;;;5035828;28;20037;-85
2021/08/27 13:11:06;;;;;;;9.13;2.67;;;;;;;;;;5031814;28;20029;-88
2021/08/27 13:13:39;;;;;;;11.45;2.55;;;;;;;;;;5033577;28;20132;-88
2021/08/27 13:16:17;;;;;;;14.38;2.88;;;;;;;;;;5034431;28;20071;-93
2021/08/27 13:19:00;;;;;;;9.20;2.53;;;;;;;;;;5038657;28;20126;-90
2021/08/27 13:21:40;;;;;;;10.38;2.70;;;;;;;;;;5036644;28;20045;-86
2021/08/27 13:24:09;;;;;;;9.60;2.70;;;;;;;;;;5032336;28;20064;-87
2021/08/27 13:26:37;;;;;;;9.20;2.45;;;;;;;;;;5039447;28;20040;-87
2021/08/27 13:29:06;;;;;;;11.95;2.83;;;;;;;;;;5050134;28;20538;-86
2021/08/27 13:31:35;;;;;;;12.32;3.03;;;;;;;;;;5032744;28;20038;-87
2021/08/27 13:34:02;;;;;;;8.15;2.40;;;;;;;;;;5051194;28;21082;-84
2021/08/27 13:36:31;;;;;;;9.63;2.80;;;;;;;;;;5031584;28;20051;-84
2021/08/27 13:38:59;;;;;;;9.25;2.60;;;;;;;;;;5039178;28;20033;-88
2021/08/27 13:41:26;;;;;;;7.85;2.55;;;;;;;;;;5034376;28;20148;-90
2021/08/27 13:43:55;;;;;;;11.43;2.90;;;;;;;;;;5003957;28;20803;-88
2021/08/27 13:46:23;;;;;;;9.65;2.60;;;;;;;;;;5029992;28;20029;-87
2021/08/27 13:48:51;;;;;;;12.05;2.70;;;;;;;;;;5008462;28;20048;-83
2021/08/27 13:52:02;;;;;;;11.23;2.90;;;;;;;;;;5074325;27;20453;-82
2021/08/27 13:54:28;;;;;;;11.02;2.92;;;;;;;;;;5058589;28;20027;-81
2021/08/27 13:56:55;;;;;;;12.13;2.90;;;;;;;;;;5054039;28;20039;-81
2021/08/27 13:59:22;;;;;;;12.25;2.85;;;;;;;;;;5058214;28;20761;-80
2021/08/27 14:01:48;;;;;;;9.45;2.80;;;;;;;;;;5053457;28;20032;-81
2021/08/27 14:04:14;;;;;;;11.18;2.95;;;;;;;;;;5056907;28;20036;-79
2021/08/27 14:06:41;;;;;;;12.30;2.70;;;;;;;;;;5050026;28;20043;-81
2021/08/27 14:09:09;;;;;;;10.80;2.88;;;;;;;;;;5058938;28;20032;-80
2021/08/27 14:11:35;;;;;;;11.20;2.85;;;;;;;;;;5049508;28;20036;-81
2021/08/27 14:14:01;;;;;;;11.82;2.67;;;;;;;;;;5053480;28;20033;-79
2021/08/27 14:16:27;;;;;;;9.65;2.88;;;;;;;;;;5057624;28;20035;-81
2021/08/27 14:18:53;;;;;;;12.18;2.72;;;;;;;;;;5051402;28;20028;-81
2021/08/27 14:21:20;;;;;;;14.85;2.88;;;;;;;;;;5056981;28;20155;-82
2021/08/27 14:23:46;;;;;;;11.07;2.90;;;;;;;;;;5051457;28;20024;-81
2021/08/27 14:26:12;;;;;;;10.23;2.88;;;;;;;;;;5058602;28;20028;-80
2021/08/27 14:28:38;;;;;;;10.63;2.60;;;;;;;;;;5051365;28;20025;-79
2021/08/27 14:31:08;;;;;;;9.95;2.72;;;;;;;;;;5060713;28;20055;-84
2021/08/27 14:33:36;;;;;;;13.48;2.88;;;;;;;;;;5068469;28;20929;-91
2021/08/27 14:36:03;;;;;;;10.82;2.88;;;;;;;;;;5091659;28;20024;-86
2021/08/27 14:38:29;;;;;;;12.80;2.70;;;;;;;;;;5083337;28;20117;-88
2021/08/27 14:40:55;;;;;;;12.90;2.53;;;;;;;;;;5071671;28;20024;-89
2021/08/27 14:43:22;;;;;;;8.27;2.90;;;;;;;;;;5074893;28;20021;-85
2021/08/27 14:45:48;;;;;;;12.15;2.83;;;;;;;;;;5065915;28;20471;-89
2021/08/27 14:48:14;;;;;;;16.58;3.28;;;;;;;;;;5067292;28;20101;-87
2021/08/27 14:50:41;;;;;;;13.85;2.90;;;;;;;;;;5056052;28;20074;-89
2021/08/27 14:53:07;;;;;;;9.00;2.60;;;;;;;;;;5063376;28;20036;-86
2021/08/27 14:55:33;;;;;;;11.55;2.83;;;;;;;;;;5060549;28;20024;-87